Lulu Pass Weather Station

This weather station provides temperature, relative humidity (RH), wind speed, gust or max wind speed, and wind direction at 10014ft near Lulu Pass at the head of Fisher Creek. This data can be used with temperature and precipitation data from the Fisher Creek SNOTEL site.

This weather station was purchased by the Friends of the Avalanche Center.

If the data has not been updated recently you can view it directly on datagarrison.com

Elevation
10014ft
Jump to table bottom
Date Time Temperature
deg F
RH, % Wind Speed Wind Gust Wind Direction
02/25/20 01:00 2.1 90 18 23 N - 350
02/25/20 00:00 0.9 89 17 21 N - 355
02/24/20 23:00 1.3 90 16 22 N - 341
02/24/20 22:00 2.1 90 11 20 NW - 334
02/24/20 21:00 2.6 91 17 29 N - 345
02/24/20 20:00 5.5 91 14 21 NW - 323
02/24/20 19:00 5.5 91 14 18 NW - 319
02/24/20 18:00 5.7 91 10 15 NW - 319
02/24/20 17:00 5.4 91 16 25 NW - 334
02/24/20 16:00 6.0 91 20 31 NW - 331
02/24/20 15:00 6.9 91 23 35 NW - 331
02/24/20 14:00 8.6 91 25 34 NW - 327
02/24/20 13:00 7.6 92 23 34 NW - 321
02/24/20 12:00 8.7 92 22 31 NW - 316
02/24/20 11:00 9.1 92 17 25 NW - 306
02/24/20 10:00 10.0 92 10 17 W - 288
02/24/20 09:00 8.2 91 9 18 NW - 293
02/24/20 08:00 6.5 91 11 17 NW - 303
02/24/20 07:00 5.3 90 16 24 NW - 310
02/24/20 06:00 5.0 90 21 27 NW - 317
02/24/20 05:00 5.2 91 24 29 NW - 323
02/24/20 04:00 5.5 91 26 36 NW - 323
02/24/20 03:00 5.9 91 27 40 NW - 324
02/24/20 02:00 6.5 91 24 38 NW - 333
02/24/20 01:00 6.7 91 31 42 NW - 329
02/24/20 00:00 7.3 92 32 46 NW - 324
02/23/20 23:00 10.4 92 29 41 NW - 334
02/23/20 22:00 14.8 94 9 24 W - 279
02/23/20 21:00 15.6 93 11 29 NW - 296
02/23/20 20:00 16.0 93 14 32 SW - 240
02/23/20 19:00 15.2 87 15 34 SW - 223
02/23/20 18:00 16.9 75 12 31 SW - 215
02/23/20 17:00 18.7 78 12 28 SW - 227
02/23/20 16:00 19.6 74 12 26 SW - 226
02/23/20 15:00 20.8 70 15 34 SW - 227
02/23/20 14:00 22.2 49 17 33 SW - 234
02/23/20 13:00 24.5 48 12 26 SW - 247
02/23/20 12:00 23.9 52 13 31 SW - 233
02/23/20 11:00 23.5 56 9 20 W - 257
02/23/20 10:00 21.4 56 7 19 W - 270
02/23/20 09:00 20.4 55 7 18 SW - 241
02/23/20 08:00 19.4 60 7 14 SW - 227
02/23/20 07:00 16.0 67 6 11 W - 291
02/23/20 06:00 16.0 66 6 13 SW - 233
02/23/20 05:00 16.0 65 8 13 SW - 223
02/23/20 04:00 15.2 67 3 8 W - 286
02/23/20 03:00 15.4 63 3 7 N - 340
02/23/20 02:00 16.2 63 5 9 SE - 132
02/23/20 01:00 15.6 62 6 10 S - 175
02/23/20 00:00 14.9 64 5 8 W - 253